עמוד ראשי
METAR-TAF:

METAR-TAF

שדות תעופה :

Tongatapu, טונגה

קו רוחב: 21-14S, קו אורך: 175-09W, גובה: 38מטר

תצפית מזג אוויר נוכחית

הדו"ח נערך לפני 27דקות, בשעה 10:00 UTC
רוח 3קשר מכיוון מזרח/דרום-מזרח
טמפרטורת 23 צלסיוס
לחות 94%
לחץ 1017 hPa
ראות 10 קילומטר או יותר
מעט עננים בגובה 1600רגל
עננים בינוניים בגובה 29000רגל

METAR: NFTF 151000Z 11003KT 9999 FEW016 BKN290 23/22 Q1017 RMK GRASS DEW

זמן: 23:27 (10:27 UTC)

תחזית

הדו"ח נערך לפני 5 שעות ו 17דקות, בשעה 05:10 UTC
תחזית בתוקף מ 15 ב 06 UTC עד 16 ב 06 UTC
רוח 6קשר מכיוון מזרח
ראות 10 קילומטר או יותר
מעט עננים בגובה 1600רגל
עננים פזורים בגובה 10000רגל

TAF: NFTF 150510Z 1506/1606 10006KT 9999 FEW016 SCT100

תצפיות ותחזיות מזג אוויר לגבי יותר מ- 4,000 שדות תעופה ברחבי העולם. דוחות METAR ו- TAF.

התחנות הזמינות מסומנות בנקודות צהובות ואדומות על גבי המפה.

העבר את העכבר לנקודה הצבעונית על מנת לראות את שם התחנה.

לאחר מכן, לחץ כדי לראות את תוכן ואת תחזיות מזג האוויר.

כדי לשנות את המפה: לחץ על הכפתורים הירוקים עם הפלוס השחור כדי להתקרב; על הכפתור הירוק עם המקף כדי להתרחק; או בחיצים הירוקים למפות סמוכות.


METAR-TAF: